createdAt,value
2022-12-22T00:00:23.030Z,10.20
2022-12-22T00:06:36.193Z,10.10
2022-12-22T00:13:13.097Z,10.10
2022-12-22T00:19:50.130Z,10.20
2022-12-22T00:26:03.091Z,10.20
2022-12-22T00:32:15.894Z,10.20
2022-12-22T00:38:53.088Z,10.20
2022-12-22T00:45:30.197Z,10.20
2022-12-22T00:51:43.301Z,10.20
2022-12-22T00:57:56.011Z,10.20
2022-12-22T01:04:32.929Z,10.20
2022-12-22T01:11:10.073Z,10.20
2022-12-22T01:17:23.038Z,10.20
2022-12-22T01:23:36.313Z,10.20
2022-12-22T01:30:13.281Z,10.20
2022-12-22T01:36:50.068Z,10.30
2022-12-22T01:43:02.852Z,10.30
2022-12-22T01:49:15.711Z,10.20
2022-12-22T01:56:04.711Z,10.20
2022-12-22T02:02:42.123Z,10.20
2022-12-22T02:08:55.299Z,10.20
2022-12-22T02:15:16.831Z,10.20
2022-12-22T02:22:05.290Z,10.10
2022-12-22T02:28:42.286Z,10.20
2022-12-22T02:34:54.989Z,10.20
2022-12-22T02:41:32.731Z,10.20
2022-12-22T02:48:18.421Z,10.30
2022-12-22T02:54:55.347Z,10.20
2022-12-22T03:01:08.497Z,10.20
2022-12-22T03:07:21.498Z,10.10
2022-12-22T03:13:58.308Z,10.10
2022-12-22T03:20:35.083Z,10.10
2022-12-22T03:26:30.184Z,10.10
2022-12-22T03:32:24.623Z,10.30
2022-12-22T03:38:43.103Z,10.30
2022-12-22T03:45:19.827Z,10.30
2022-12-22T03:51:14.161Z,10.40
2022-12-22T03:57:08.660Z,10.40
2022-12-22T04:03:39.131Z,10.30
2022-12-22T04:10:16.205Z,10.30
2022-12-22T04:16:10.610Z,10.10
2022-12-22T04:22:05.307Z,9.90
2022-12-22T04:28:24.366Z,9.70
2022-12-22T04:34:42.747Z,9.70
2022-12-22T04:40:37.134Z,9.60
2022-12-22T04:46:33.419Z,9.50
2022-12-22T04:52:52.166Z,9.40
2022-12-22T04:59:10.546Z,9.30
2022-12-22T05:05:05.146Z,9.20
2022-12-22T05:10:59.658Z,9.20
2022-12-22T05:17:18.302Z,9.10
2022-12-22T05:23:36.673Z,9.20
2022-12-22T05:29:31.118Z,9.10
2022-12-22T05:35:25.544Z,9.10
2022-12-22T05:41:44.011Z,9.10
2022-12-22T05:48:02.385Z,9.10
2022-12-22T05:53:56.711Z,9.10
2022-12-22T05:59:51.182Z,9.10
2022-12-22T06:06:21.654Z,9.20
2022-12-22T06:12:40.522Z,9.00
2022-12-22T06:18:34.885Z,8.80
2022-12-22T06:24:29.356Z,8.70
2022-12-22T06:30:48.841Z,8.80
2022-12-22T06:37:07.215Z,8.70
2022-12-22T06:43:11.079Z,8.60
2022-12-22T06:49:05.723Z,8.60
2022-12-22T06:55:24.169Z,8.70
2022-12-22T07:01:42.924Z,8.70
2022-12-22T07:07:37.353Z,8.70
2022-12-22T07:13:34.195Z,8.60
2022-12-22T07:19:52.756Z,8.80
2022-12-22T07:26:11.193Z,8.90
2022-12-22T07:32:05.668Z,8.80
2022-12-22T07:38:00.654Z,8.70
2022-12-22T07:44:19.118Z,8.60
2022-12-22T07:50:37.531Z,8.60
2022-12-22T07:56:32.024Z,8.50
2022-12-22T08:02:26.887Z,8.40
2022-12-22T08:08:57.515Z,8.50
2022-12-22T08:17:06.779Z,8.50
2022-12-22T08:23:01.163Z,8.50
2022-12-22T08:29:00.328Z,8.50
2022-12-22T08:35:18.965Z,8.60
2022-12-22T08:41:52.753Z,8.50
2022-12-22T08:47:47.222Z,8.40
2022-12-22T09:00:20.476Z,8.40
2022-12-22T09:06:41.321Z,8.50
2022-12-22T09:12:35.970Z,8.50
2022-12-22T09:18:30.404Z,8.50
2022-12-22T09:24:48.861Z,8.60
2022-12-22T09:31:07.285Z,8.70
2022-12-22T09:37:01.654Z,8.60
2022-12-22T09:42:56.129Z,8.80
2022-12-22T09:49:15.907Z,8.80
2022-12-22T09:55:41.442Z,9.00
2022-12-22T10:01:55.218Z,9.00
2022-12-22T10:07:49.777Z,9.10
2022-12-22T10:14:20.916Z,9.20
2022-12-22T10:20:39.915Z,9.40
2022-12-22T10:26:34.372Z,9.50
2022-12-22T10:32:28.843Z,9.60
2022-12-22T10:38:59.549Z,9.80
2022-12-22T10:45:21.601Z,10.10
2022-12-22T10:51:16.143Z,10.20
2022-12-22T10:57:13.343Z,10.40
2022-12-22T11:03:32.174Z,10.30
2022-12-22T11:09:51.012Z,10.30
2022-12-22T11:15:48.245Z,10.40
2022-12-22T11:21:52.456Z,10.30
2022-12-22T11:28:37.409Z,10.40
2022-12-22T11:35:11.084Z,10.50
2022-12-22T11:41:14.534Z,10.50
2022-12-22T11:47:27.085Z,10.40
2022-12-22T11:53:51.297Z,10.50
2022-12-22T12:00:10.671Z,10.50
2022-12-22T12:06:11.188Z,10.50
2022-12-22T12:12:17.460Z,10.50
2022-12-22T12:19:01.595Z,10.40
2022-12-22T12:25:29.173Z,10.40
2022-12-22T12:31:26.567Z,10.30
2022-12-22T12:37:33.245Z,10.30
2022-12-22T12:43:52.512Z,10.30
2022-12-22T12:50:29.603Z,10.20
2022-12-22T12:56:25.500Z,10.10
2022-12-22T13:02:30.924Z,10.10
2022-12-22T13:09:50.577Z,10.10
2022-12-22T13:16:03.451Z,10.00
2022-12-22T13:21:58.088Z,10.00
2022-12-22T13:27:52.608Z,10.00
2022-12-22T13:34:32.332Z,10.20
2022-12-22T13:40:50.723Z,10.30
2022-12-22T13:46:45.290Z,10.30
2022-12-22T13:52:40.477Z,10.30
2022-12-22T13:58:59.536Z,10.30
2022-12-22T14:05:18.164Z,10.40
2022-12-22T14:11:12.535Z,10.40
2022-12-22T14:17:18.923Z,10.40
2022-12-22T14:23:49.710Z,10.50
2022-12-22T14:30:15.632Z,10.50
2022-12-22T14:36:17.135Z,10.60
2022-12-22T14:42:13.232Z,10.60
2022-12-22T14:48:34.205Z,10.60
2022-12-22T14:54:53.043Z,10.70
2022-12-22T15:00:48.094Z,10.80
2022-12-22T15:06:43.857Z,10.80
2022-12-22T15:13:05.276Z,10.90
2022-12-22T15:19:23.667Z,11.00
2022-12-22T15:25:19.030Z,11.00
2022-12-22T15:31:15.110Z,11.00
2022-12-22T15:37:33.738Z,11.10
2022-12-22T15:43:59.715Z,11.10
2022-12-22T15:49:54.271Z,11.10
2022-12-22T15:55:50.616Z,11.10
2022-12-22T16:02:13.975Z,11.10
2022-12-22T16:08:37.021Z,11.20
2022-12-22T16:14:38.756Z,11.20
2022-12-22T16:20:38.445Z,11.20
2022-12-22T16:27:10.688Z,11.20
2022-12-22T16:33:29.149Z,11.30
2022-12-22T16:39:23.570Z,11.20
2022-12-22T16:45:27.114Z,11.20
2022-12-22T16:51:48.261Z,11.30
2022-12-22T16:58:13.428Z,11.30
2022-12-22T17:04:12.178Z,11.30
2022-12-22T17:10:07.189Z,11.30
2022-12-22T17:16:25.743Z,11.30
2022-12-22T17:22:51.089Z,11.30
2022-12-22T17:28:45.742Z,11.30
2022-12-22T17:34:40.419Z,11.30
2022-12-22T17:40:59.019Z,11.30
2022-12-22T17:47:18.274Z,11.30
2022-12-22T17:53:14.305Z,11.20
2022-12-22T17:59:12.035Z,11.20
2022-12-22T18:05:34.458Z,11.20
2022-12-22T18:11:52.834Z,11.20
2022-12-22T18:17:47.213Z,11.20
2022-12-22T18:23:49.327Z,11.20
2022-12-22T18:30:24.335Z,11.20
2022-12-22T18:36:45.538Z,11.20
2022-12-22T18:42:39.945Z,11.20
2022-12-22T18:48:34.395Z,11.20
2022-12-22T18:54:52.878Z,11.30
2022-12-22T19:01:14.456Z,11.30
2022-12-22T19:07:15.537Z,11.20
2022-12-22T19:13:20.402Z,11.20
2022-12-22T19:19:39.358Z,11.30
2022-12-22T19:26:06.960Z,11.30
2022-12-22T19:32:03.210Z,11.30
2022-12-22T19:37:58.008Z,11.20
2022-12-22T19:44:27.690Z,11.30
2022-12-22T19:50:46.516Z,11.30
2022-12-22T19:56:41.227Z,11.30
2022-12-22T20:02:35.848Z,11.20
2022-12-22T20:09:01.348Z,11.30
2022-12-22T20:15:26.856Z,11.30
2022-12-22T20:21:28.063Z,11.30
2022-12-22T20:27:24.868Z,11.30
2022-12-22T20:33:55.530Z,11.20
2022-12-22T20:40:19.599Z,11.20
2022-12-22T20:46:15.595Z,11.20
2022-12-22T20:52:14.781Z,11.10
2022-12-22T20:58:34.125Z,11.20
2022-12-22T21:04:52.574Z,11.20
2022-12-22T21:10:46.994Z,11.10
2022-12-22T21:16:41.748Z,11.10
2022-12-22T21:23:00.351Z,11.10
2022-12-22T21:29:22.801Z,11.10
2022-12-22T21:35:27.577Z,11.00
2022-12-22T21:41:44.939Z,11.00
2022-12-22T21:48:03.610Z,11.00
2022-12-22T21:54:22.530Z,11.00
2022-12-22T22:00:17.368Z,11.00
2022-12-22T22:06:11.826Z,11.00
2022-12-22T22:12:33.263Z,11.00
2022-12-22T22:18:51.635Z,11.00
2022-12-22T22:24:45.979Z,11.00
2022-12-22T22:30:41.005Z,11.00
2022-12-22T22:37:11.482Z,11.10
2022-12-22T22:43:29.858Z,11.10
2022-12-22T22:49:28.298Z,11.10
2022-12-22T22:55:23.395Z,11.10
2022-12-22T23:01:42.010Z,11.20
2022-12-22T23:08:00.386Z,11.20
2022-12-22T23:13:54.776Z,11.10
2022-12-22T23:19:49.229Z,11.10
2022-12-22T23:26:07.784Z,11.10
2022-12-22T23:32:26.170Z,11.10
2022-12-22T23:43:44.016Z,11.00
2022-12-22T23:49:38.467Z,11.00
2022-12-22T23:55:56.977Z,11.00
